createdAt,value
2022-11-06T00:01:48.802Z,14.17
2022-11-06T00:06:50.439Z,13.96
2022-11-06T00:11:52.958Z,14.03
2022-11-06T00:16:51.646Z,14.05
2022-11-06T00:21:50.517Z,13.99
2022-11-06T00:26:54.377Z,13.92
2022-11-06T00:31:53.569Z,13.93
2022-11-06T00:36:52.368Z,13.91
2022-11-06T00:41:52.526Z,13.93
2022-11-06T00:46:51.350Z,13.93
2022-11-06T00:51:50.115Z,14.00
2022-11-06T00:56:48.889Z,13.95
2022-11-06T01:01:49.155Z,14.05
2022-11-06T01:06:50.810Z,14.22
2022-11-06T01:12:12.405Z,14.27
2022-11-06T01:17:13.386Z,14.33
2022-11-06T01:22:12.169Z,14.35
2022-11-06T01:27:27.492Z,14.19
2022-11-06T01:32:27.955Z,13.75
2022-11-06T01:37:26.795Z,13.69
2022-11-06T01:42:25.692Z,13.70
2022-11-06T01:47:27.835Z,13.72
2022-11-06T01:52:29.339Z,13.73
2022-11-06T01:57:28.244Z,13.38
2022-11-06T02:02:28.767Z,13.44
2022-11-06T02:07:28.018Z,13.63
2022-11-06T02:12:40.822Z,13.54
2022-11-06T02:17:58.334Z,13.56
2022-11-06T02:23:32.937Z,13.55
2022-11-06T02:28:36.738Z,13.51
2022-11-06T02:33:39.604Z,13.57
2022-11-06T02:38:42.048Z,13.61
2022-11-06T02:43:46.598Z,13.53
2022-11-06T02:48:50.879Z,13.45
2022-11-06T02:53:50.555Z,13.55
2022-11-06T02:58:54.813Z,13.44
2022-11-06T03:03:57.104Z,13.40
2022-11-06T03:09:00.269Z,13.35
2022-11-06T03:14:10.547Z,13.36
2022-11-06T03:19:19.908Z,13.45
2022-11-06T03:24:31.190Z,13.46
2022-11-06T03:29:40.653Z,13.54
2022-11-06T03:34:44.168Z,13.53
2022-11-06T03:39:49.634Z,13.56
2022-11-06T03:44:53.631Z,13.51
2022-11-06T03:49:59.060Z,13.52
2022-11-06T03:55:01.686Z,13.49
2022-11-06T04:00:05.888Z,13.58
2022-11-06T04:05:15.953Z,13.50
2022-11-06T04:10:32.558Z,13.47
2022-11-06T04:15:37.874Z,13.50
2022-11-06T04:21:00.159Z,13.37
2022-11-06T04:26:23.404Z,13.31
2022-11-06T04:31:29.009Z,13.36
2022-11-06T04:36:41.060Z,13.42
2022-11-06T04:41:46.635Z,13.39
2022-11-06T04:46:52.329Z,13.55
2022-11-06T04:51:51.293Z,13.56
2022-11-06T04:56:51.446Z,13.64
2022-11-06T05:01:52.285Z,13.65
2022-11-06T05:06:51.128Z,13.69
2022-11-06T05:11:50.076Z,13.76
2022-11-06T05:16:48.878Z,13.80
2022-11-06T05:22:06.420Z,13.87
2022-11-06T05:27:05.479Z,13.80
2022-11-06T05:32:16.050Z,13.79
2022-11-06T05:37:16.182Z,13.85
2022-11-06T05:42:15.008Z,13.97
2022-11-06T05:47:13.830Z,13.89
2022-11-06T05:52:12.635Z,13.95
2022-11-06T05:57:13.005Z,14.04
2022-11-06T06:02:12.309Z,14.01
2022-11-06T06:07:11.535Z,14.18
2022-11-06T06:12:14.422Z,14.29
2022-11-06T06:17:13.427Z,14.35
2022-11-06T06:22:12.765Z,14.46
2022-11-06T06:27:13.299Z,14.64
2022-11-06T06:32:12.110Z,14.76
2022-11-06T06:37:10.879Z,14.59
2022-11-06T06:42:09.778Z,14.61
2022-11-06T06:47:09.974Z,14.79
2022-11-06T06:52:11.348Z,14.98
2022-11-06T06:57:13.581Z,15.22
2022-11-06T07:02:14.608Z,15.44
2022-11-06T07:07:14.240Z,15.64
2022-11-06T07:12:13.555Z,15.92
2022-11-06T07:17:13.894Z,15.92
2022-11-06T07:22:12.790Z,15.95
2022-11-06T07:27:11.620Z,16.16
2022-11-06T07:32:10.489Z,16.27
2022-11-06T07:37:10.711Z,16.30
2022-11-06T07:42:09.552Z,16.64
2022-11-06T07:47:09.261Z,17.32
2022-11-06T07:52:08.016Z,18.51
2022-11-06T07:57:08.149Z,18.81
2022-11-06T08:02:07.142Z,19.11
2022-11-06T08:07:06.526Z,19.31
2022-11-06T08:12:05.686Z,19.61
2022-11-06T08:17:05.815Z,20.23
2022-11-06T08:22:04.641Z,19.81
2022-11-06T08:27:04.004Z,19.47
2022-11-06T08:32:05.413Z,19.56
2022-11-06T08:37:04.383Z,19.41
2022-11-06T08:42:05.279Z,19.57
2022-11-06T08:47:05.878Z,19.66
2022-11-06T08:52:05.709Z,19.86
2022-11-06T08:57:04.617Z,20.16
2022-11-06T09:02:03.544Z,20.31
2022-11-06T09:07:03.870Z,20.66
2022-11-06T09:12:05.234Z,20.89
2022-11-06T09:17:04.102Z,21.15
2022-11-06T09:22:06.952Z,21.69
2022-11-06T09:27:09.796Z,21.99
2022-11-06T09:32:10.062Z,22.35
2022-11-06T09:37:11.457Z,22.72
2022-11-06T09:42:20.775Z,23.28
2022-11-06T09:47:26.458Z,23.29
2022-11-06T09:52:34.591Z,23.71
2022-11-06T09:57:41.230Z,23.72
2022-11-06T10:02:48.988Z,24.12
2022-11-06T10:07:53.682Z,24.64
2022-11-06T10:13:07.875Z,25.05
2022-11-06T10:18:14.516Z,25.21
2022-11-06T10:23:21.693Z,25.93
2022-11-06T10:28:34.216Z,25.82
2022-11-06T10:33:45.029Z,26.12
2022-11-06T10:38:49.278Z,26.10
2022-11-06T10:43:53.825Z,26.78
2022-11-06T10:48:59.264Z,27.74
2022-11-06T10:54:15.567Z,27.74
2022-11-06T10:59:18.101Z,27.09
2022-11-06T11:04:19.427Z,27.54
2022-11-06T11:09:31.625Z,27.92
2022-11-06T11:14:32.429Z,27.51
2022-11-06T11:19:41.555Z,27.74
2022-11-06T11:25:00.931Z,27.33
2022-11-06T11:29:59.916Z,27.32
2022-11-06T11:34:59.827Z,27.68
2022-11-06T11:40:22.092Z,28.15
2022-11-06T11:45:22.790Z,28.32
2022-11-06T11:50:29.049Z,29.36
2022-11-06T11:55:31.405Z,29.48
2022-11-06T12:00:31.149Z,29.51
2022-11-06T12:05:36.825Z,29.23
2022-11-06T12:10:39.196Z,29.59
2022-11-06T12:15:45.539Z,29.94
2022-11-06T12:20:52.482Z,29.74
2022-11-06T12:26:01.237Z,29.66
2022-11-06T12:31:07.311Z,29.83
2022-11-06T12:36:09.829Z,29.94
2022-11-06T12:41:16.355Z,30.49
2022-11-06T12:46:39.778Z,30.80
2022-11-06T12:51:47.710Z,30.27
2022-11-06T12:56:56.385Z,29.94
2022-11-06T13:02:05.517Z,29.43
2022-11-06T13:07:53.885Z,28.50
2022-11-06T13:13:16.417Z,27.96
2022-11-06T13:18:21.215Z,27.70
2022-11-06T13:23:27.163Z,27.15
2022-11-06T13:28:39.003Z,26.98
2022-11-06T13:33:45.946Z,26.42
2022-11-06T13:38:52.646Z,25.74
2022-11-06T13:43:59.964Z,25.37
2022-11-06T13:49:08.216Z,25.10
2022-11-06T13:54:16.218Z,24.80
2022-11-06T13:59:34.315Z,24.25
2022-11-06T14:04:58.296Z,24.09
2022-11-06T14:09:57.521Z,24.10
2022-11-06T14:15:24.453Z,24.29
2022-11-06T14:20:32.802Z,23.92
2022-11-06T14:26:00.137Z,23.54
2022-11-06T14:31:21.448Z,23.40
2022-11-06T14:36:30.209Z,23.24
2022-11-06T14:41:54.710Z,22.98
2022-11-06T14:46:58.383Z,22.95
2022-11-06T14:52:02.966Z,22.90
2022-11-06T14:57:02.034Z,22.74
2022-11-06T15:02:13.372Z,22.56
2022-11-06T15:08:02.764Z,22.41
2022-11-06T15:13:12.779Z,22.30
2022-11-06T15:18:19.280Z,22.24
2022-11-06T15:23:23.680Z,22.04
2022-11-06T15:28:27.133Z,21.95
2022-11-06T15:33:32.353Z,21.75
2022-11-06T15:38:39.556Z,21.48
2022-11-06T15:43:38.765Z,21.27
2022-11-06T15:48:39.471Z,20.86
2022-11-06T15:53:41.442Z,20.63
2022-11-06T15:58:43.400Z,20.51
2022-11-06T16:03:48.379Z,20.21
2022-11-06T16:08:48.306Z,20.26
2022-11-06T16:13:47.891Z,20.18
2022-11-06T16:18:49.509Z,20.28
2022-11-06T16:23:51.955Z,20.21
2022-11-06T16:28:51.396Z,20.14
2022-11-06T16:33:58.323Z,19.98
2022-11-06T16:39:48.777Z,19.91
2022-11-06T16:44:50.047Z,19.83
2022-11-06T16:49:54.302Z,19.66
2022-11-06T16:54:56.406Z,19.67
2022-11-06T17:00:02.573Z,19.62
2022-11-06T17:05:12.081Z,19.33
2022-11-06T17:10:41.745Z,19.22
2022-11-06T17:15:40.779Z,19.01
2022-11-06T17:20:42.977Z,18.96
2022-11-06T17:25:42.009Z,18.86
2022-11-06T17:30:46.654Z,18.81
2022-11-06T17:35:59.624Z,18.76
2022-11-06T17:41:01.365Z,18.86
2022-11-06T17:46:10.254Z,18.82
2022-11-06T17:51:28.205Z,18.67
2022-11-06T17:56:37.788Z,18.75
2022-11-06T18:01:37.425Z,18.76
2022-11-06T18:06:53.543Z,18.77
2022-11-06T18:11:55.417Z,18.63
2022-11-06T18:16:54.858Z,18.69
2022-11-06T18:21:58.270Z,18.71
2022-11-06T18:26:58.850Z,18.83
2022-11-06T18:31:57.859Z,18.86
2022-11-06T18:36:58.000Z,18.92
2022-11-06T18:42:00.666Z,18.91
2022-11-06T18:46:59.691Z,18.89
2022-11-06T18:52:00.483Z,18.89
2022-11-06T18:56:59.263Z,18.81
2022-11-06T19:02:03.571Z,18.85
2022-11-06T19:07:07.192Z,18.75
2022-11-06T19:12:07.074Z,18.60
2022-11-06T19:17:06.174Z,18.53
2022-11-06T19:22:06.765Z,18.45
2022-11-06T19:27:09.399Z,18.57
2022-11-06T19:32:13.033Z,18.43
2022-11-06T19:37:14.966Z,18.50
2022-11-06T19:42:17.773Z,18.34
2022-11-06T19:47:17.388Z,18.19
2022-11-06T19:52:42.861Z,18.18
2022-11-06T19:58:09.384Z,18.26
2022-11-06T20:03:08.615Z,18.17
2022-11-06T20:08:09.304Z,18.19
2022-11-06T20:13:09.037Z,18.30
2022-11-06T20:18:07.814Z,18.13
2022-11-06T20:23:08.155Z,18.04
2022-11-06T20:28:07.095Z,18.13
2022-11-06T20:33:06.069Z,18.15
2022-11-06T20:38:05.138Z,18.24
2022-11-06T20:43:06.374Z,18.23
2022-11-06T20:48:05.877Z,18.17
2022-11-06T20:53:05.668Z,18.13
2022-11-06T20:58:12.974Z,18.15
2022-11-06T21:03:12.218Z,18.10
2022-11-06T21:08:11.368Z,18.19
2022-11-06T21:13:14.434Z,18.13
2022-11-06T21:18:13.605Z,17.97
2022-11-06T21:23:20.113Z,17.97
2022-11-06T21:28:30.135Z,17.98
2022-11-06T21:33:30.958Z,18.01
2022-11-06T21:38:29.956Z,17.99
2022-11-06T21:43:32.166Z,17.99
2022-11-06T21:48:50.116Z,17.84
2022-11-06T21:54:10.237Z,17.80
2022-11-06T21:59:12.885Z,17.67
2022-11-06T22:04:12.569Z,17.65
2022-11-06T22:09:12.544Z,17.59
2022-11-06T22:14:16.377Z,17.50
2022-11-06T22:19:17.761Z,17.43
2022-11-06T22:24:17.262Z,17.46
2022-11-06T22:29:17.523Z,17.39
2022-11-06T22:34:16.353Z,17.34
2022-11-06T22:39:15.159Z,17.24
2022-11-06T22:44:13.932Z,17.18
2022-11-06T22:49:14.309Z,17.01
2022-11-06T22:54:13.670Z,17.05
2022-11-06T22:59:13.595Z,16.96
2022-11-06T23:04:16.313Z,16.90
2022-11-06T23:09:15.110Z,17.00
2022-11-06T23:14:13.879Z,17.00
2022-11-06T23:19:17.130Z,17.04
2022-11-06T23:24:16.127Z,17.12
2022-11-06T23:29:14.892Z,16.83
2022-11-06T23:34:13.711Z,16.84
2022-11-06T23:39:13.934Z,16.85
2022-11-06T23:44:27.627Z,16.79
2022-11-06T23:49:26.879Z,16.75
2022-11-06T23:54:27.138Z,16.82
2022-11-06T23:59:25.996Z,16.81
